sensor_id;sensor_type;location;lat;lon;timestamp;pressure;altitude;pressure_sealevel;temperature;humidity
66273;BME280;58450;52.150;4.466;2023-04-26T00:00:33;101964.13;;;6.43;100.00
66273;BME280;58450;52.150;4.466;2023-04-26T00:03:02;101958.22;;;6.49;100.00
66273;BME280;58450;52.150;4.466;2023-04-26T00:05:29;101965.53;;;6.47;100.00
66273;BME280;58450;52.150;4.466;2023-04-26T00:07:58;101966.91;;;6.42;100.00
66273;BME280;58450;52.150;4.466;2023-04-26T00:10:25;101971.94;;;6.35;100.00
66273;BME280;58450;52.150;4.466;2023-04-26T00:12:53;101955.19;;;6.33;100.00
66273;BME280;58450;52.150;4.466;2023-04-26T00:15:20;101956.53;;;6.27;100.00
66273;BME280;58450;52.150;4.466;2023-04-26T00:17:48;101956.94;;;6.23;100.00
66273;BME280;58450;52.150;4.466;2023-04-26T00:20:17;101962.16;;;6.24;100.00
66273;BME280;58450;52.150;4.466;2023-04-26T00:22:45;101962.56;;;6.19;100.00
66273;BME280;58450;52.150;4.466;2023-04-26T00:25:12;101962.56;;;6.19;100.00
66273;BME280;58450;52.150;4.466;2023-04-26T00:27:40;101961.53;;;6.11;100.00
66273;BME280;58450;52.150;4.466;2023-04-26T00:30:08;101958.63;;;6.24;100.00
66273;BME280;58450;52.150;4.466;2023-04-26T00:32:36;101959.63;;;6.23;100.00
66273;BME280;58450;52.150;4.466;2023-04-26T00:35:04;101960.19;;;6.05;100.00
66273;BME280;58450;52.150;4.466;2023-04-26T00:37:34;101958.66;;;6.02;100.00
66273;BME280;58450;52.150;4.466;2023-04-26T00:40:01;101959.72;;;6.21;100.00
66273;BME280;58450;52.150;4.466;2023-04-26T00:42:30;101958.97;;;6.09;100.00
66273;BME280;58450;52.150;4.466;2023-04-26T00:44:58;101962.09;;;6.14;100.00
66273;BME280;58450;52.150;4.466;2023-04-26T00:47:28;101964.31;;;6.09;100.00
66273;BME280;58450;52.150;4.466;2023-04-26T00:49:57;101965.63;;;6.15;100.00
66273;BME280;58450;52.150;4.466;2023-04-26T00:52:25;101956.97;;;5.90;100.00
66273;BME280;58450;52.150;4.466;2023-04-26T00:54:55;101962.88;;;5.94;100.00
66273;BME280;58450;52.150;4.466;2023-04-26T00:57:23;101954.50;;;5.98;100.00
66273;BME280;58450;52.150;4.466;2023-04-26T00:59:51;101959.69;;;5.79;100.00
66273;BME280;58450;52.150;4.466;2023-04-26T01:02:19;101966.78;;;5.68;100.00
66273;BME280;58450;52.150;4.466;2023-04-26T01:04:47;101960.38;;;5.92;100.00
66273;BME280;58450;52.150;4.466;2023-04-26T01:07:15;101960.97;;;5.63;100.00
66273;BME280;58450;52.150;4.466;2023-04-26T01:09:43;101959.44;;;5.49;100.00
66273;BME280;58450;52.150;4.466;2023-04-26T01:12:12;101963.56;;;5.53;100.00
66273;BME280;58450;52.150;4.466;2023-04-26T01:14:40;101959.69;;;5.46;100.00
66273;BME280;58450;52.150;4.466;2023-04-26T01:17:08;101957.25;;;5.43;100.00
66273;BME280;58450;52.150;4.466;2023-04-26T01:19:45;101956.75;;;5.49;100.00
66273;BME280;58450;52.150;4.466;2023-04-26T01:22:13;101957.50;;;5.51;100.00
66273;BME280;58450;52.150;4.466;2023-04-26T01:24:44;101968.03;;;5.53;100.00
66273;BME280;58450;52.150;4.466;2023-04-26T01:27:14;101958.06;;;5.55;100.00
66273;BME280;58450;52.150;4.466;2023-04-26T01:29:42;101958.22;;;5.53;100.00
66273;BME280;58450;52.150;4.466;2023-04-26T01:32:11;101963.41;;;5.55;100.00
66273;BME280;58450;52.150;4.466;2023-04-26T01:34:38;101957.56;;;5.61;100.00
66273;BME280;58450;52.150;4.466;2023-04-26T01:37:06;101955.16;;;5.58;100.00
66273;BME280;58450;52.150;4.466;2023-04-26T01:39:33;101959.69;;;5.46;100.00
66273;BME280;58450;52.150;4.466;2023-04-26T01:42:03;101961.88;;;5.41;100.00
66273;BME280;58450;52.150;4.466;2023-04-26T01:44:31;101953.88;;;5.41;100.00
66273;BME280;58450;52.150;4.466;2023-04-26T01:46:58;101957.75;;;5.37;100.00
66273;BME280;58450;52.150;4.466;2023-04-26T01:49:26;101957.75;;;5.37;100.00
66273;BME280;58450;52.150;4.466;2023-04-26T01:51:54;101955.31;;;5.45;100.00
66273;BME280;58450;52.150;4.466;2023-04-26T01:54:21;101950.09;;;5.43;100.00
66273;BME280;58450;52.150;4.466;2023-04-26T01:56:49;101962.59;;;5.43;100.00
66273;BME280;58450;52.150;4.466;2023-04-26T01:59:18;101958.34;;;5.40;100.00
66273;BME280;58450;52.150;4.466;2023-04-26T02:01:45;101961.41;;;5.36;100.00
66273;BME280;58450;52.150;4.466;2023-04-26T02:04:13;101961.75;;;5.42;100.00
66273;BME280;58450;52.150;4.466;2023-04-26T02:06:40;101963.22;;;5.35;100.00
66273;BME280;58450;52.150;4.466;2023-04-26T02:09:08;101950.97;;;5.32;100.00
66273;BME280;58450;52.150;4.466;2023-04-26T02:11:36;101964.44;;;5.31;100.00
66273;BME280;58450;52.150;4.466;2023-04-26T02:14:03;101950.59;;;5.37;100.00
66273;BME280;58450;52.150;4.466;2023-04-26T02:16:32;101959.53;;;5.47;100.00
66273;BME280;58450;52.150;4.466;2023-04-26T02:19:00;101957.38;;;5.41;100.00
66273;BME280;58450;52.150;4.466;2023-04-26T02:21:29;101961.88;;;5.41;100.00
66273;BME280;58450;52.150;4.466;2023-04-26T02:23:56;101959.78;;;5.44;100.00
66273;BME280;58450;52.150;4.466;2023-04-26T02:26:24;101950.34;;;5.40;100.00
66273;BME280;58450;52.150;4.466;2023-04-26T02:28:51;101960.19;;;5.40;100.00
66273;BME280;58450;52.150;4.466;2023-04-26T02:31:19;101950.81;;;5.45;100.00
66273;BME280;58450;52.150;4.466;2023-04-26T02:33:48;101955.66;;;5.52;100.00
66273;BME280;58450;52.150;4.466;2023-04-26T02:36:16;101955.06;;;5.48;100.00
66273;BME280;58450;52.150;4.466;2023-04-26T02:38:43;101954.72;;;5.41;100.00
66273;BME280;58450;52.150;4.466;2023-04-26T02:41:11;101948.56;;;5.29;100.00
66273;BME280;58450;52.150;4.466;2023-04-26T02:43:38;101952.78;;;5.32;100.00
66273;BME280;58450;52.150;4.466;2023-04-26T02:46:06;101949.97;;;5.45;100.00
66273;BME280;58450;52.150;4.466;2023-04-26T02:48:34;101946.84;;;5.40;100.00
66273;BME280;58450;52.150;4.466;2023-04-26T02:51:03;101945.94;;;5.51;100.00
66273;BME280;58450;52.150;4.466;2023-04-26T02:53:31;101943.66;;;5.46;100.00
66273;BME280;58450;52.150;4.466;2023-04-26T02:55:59;101943.25;;;5.62;100.00
66273;BME280;58450;52.150;4.466;2023-04-26T02:58:26;101941.94;;;5.56;100.00
66273;BME280;58450;52.150;4.466;2023-04-26T03:00:55;101943.03;;;5.54;100.00
66273;BME280;58450;52.150;4.466;2023-04-26T03:03:24;101937.47;;;5.45;100.00
66273;BME280;58450;52.150;4.466;2023-04-26T03:05:51;101933.50;;;5.40;100.00
66273;BME280;58450;52.150;4.466;2023-04-26T03:08:20;101934.56;;;5.37;100.00
66273;BME280;58450;52.150;4.466;2023-04-26T03:10:47;101941.28;;;5.31;100.00
66273;BME280;58450;52.150;4.466;2023-04-26T03:13:15;101944.88;;;5.42;100.00
66273;BME280;58450;52.150;4.466;2023-04-26T03:15:43;101943.91;;;5.43;100.00
66273;BME280;58450;52.150;4.466;2023-04-26T03:18:12;101933.03;;;5.35;100.00
66273;BME280;58450;52.150;4.466;2023-04-26T03:20:40;101939.09;;;5.37;100.00
66273;BME280;58450;52.150;4.466;2023-04-26T03:23:08;101943.56;;;5.36;100.00
66273;BME280;58450;52.150;4.466;2023-04-26T03:25:37;101939.09;;;5.37;100.00
66273;BME280;58450;52.150;4.466;2023-04-26T03:28:04;101947.59;;;5.30;100.00
66273;BME280;58450;52.150;4.466;2023-04-26T03:30:32;101937.59;;;5.44;100.00
66273;BME280;58450;52.150;4.466;2023-04-26T03:33:00;101930.34;;;5.35;100.00
66273;BME280;58450;52.150;4.466;2023-04-26T03:35:27;101940.81;;;5.26;100.00
66273;BME280;58450;52.150;4.466;2023-04-26T03:37:55;101938.84;;;5.28;100.00
66273;BME280;58450;52.150;4.466;2023-04-26T03:40:22;101935.06;;;5.31;100.00
66273;BME280;58450;52.150;4.466;2023-04-26T03:42:51;101929.41;;;5.24;100.00
66273;BME280;58450;52.150;4.466;2023-04-26T03:45:18;101933.03;;;5.23;100.00
66273;BME280;58450;52.150;4.466;2023-04-26T03:47:46;101922.38;;;5.23;100.00
66273;BME280;58450;52.150;4.466;2023-04-26T03:50:13;101933.19;;;5.22;100.00
66273;BME280;58450;52.150;4.466;2023-04-26T03:52:41;101916.56;;;5.18;100.00
66273;BME280;58450;52.150;4.466;2023-04-26T03:55:08;101915.84;;;5.16;100.00
66273;BME280;58450;52.150;4.466;2023-04-26T03:57:36;101918.16;;;5.09;100.00
66273;BME280;58450;52.150;4.466;2023-04-26T04:00:06;101923.25;;;5.12;100.00
66273;BME280;58450;52.150;4.466;2023-04-26T04:02:37;101913.06;;;5.06;100.00
66273;BME280;58450;52.150;4.466;2023-04-26T04:05:04;101914.16;;;5.03;100.00
66273;BME280;58450;52.150;4.466;2023-04-26T04:07:33;101914.53;;;5.10;100.00
66273;BME280;58450;52.150;4.466;2023-04-26T04:10:01;101915.75;;;4.95;100.00
66273;BME280;58450;52.150;4.466;2023-04-26T04:12:28;101917.47;;;4.96;100.00
66273;BME280;58450;52.150;4.466;2023-04-26T04:14:56;101920.72;;;4.99;100.00
66273;BME280;58450;52.150;4.466;2023-04-26T04:17:25;101925.69;;;5.04;100.00
66273;BME280;58450;52.150;4.466;2023-04-26T04:19:52;101922.91;;;4.94;100.00
66273;BME280;58450;52.150;4.466;2023-04-26T04:22:19;101925.09;;;4.89;100.00
66273;BME280;58450;52.150;4.466;2023-04-26T04:24:47;101923.25;;;5.12;100.00
66273;BME280;58450;52.150;4.466;2023-04-26T04:27:14;101933.94;;;5.12;100.00
66273;BME280;58450;52.150;4.466;2023-04-26T04:29:42;101929.78;;;5.20;100.00
66273;BME280;58450;52.150;4.466;2023-04-26T04:32:09;101930.66;;;5.09;100.00
66273;BME280;58450;52.150;4.466;2023-04-26T04:34:40;101935.63;;;5.13;100.00
66273;BME280;58450;52.150;4.466;2023-04-26T04:37:07;101929.56;;;5.11;100.00
66273;BME280;58450;52.150;4.466;2023-04-26T04:39:35;101927.72;;;5.23;100.00
66273;BME280;58450;52.150;4.466;2023-04-26T04:42:02;101933.75;;;5.25;100.00
66273;BME280;58450;52.150;4.466;2023-04-26T04:44:30;101932.28;;;5.32;100.00
66273;BME280;58450;52.150;4.466;2023-04-26T04:46:58;101940.31;;;5.32;100.00
66273;BME280;58450;52.150;4.466;2023-04-26T04:49:26;101933.03;;;5.35;100.00
66273;BME280;58450;52.150;4.466;2023-04-26T04:51:57;101933.72;;;5.48;100.00
66273;BME280;58450;52.150;4.466;2023-04-26T04:54:25;101938.31;;;5.46;100.00
66273;BME280;58450;52.150;4.466;2023-04-26T04:56:52;101934.28;;;5.52;100.00
66273;BME280;58450;52.150;4.466;2023-04-26T04:59:20;101930.03;;;5.60;100.00
66273;BME280;58450;52.150;4.466;2023-04-26T05:01:47;101934.47;;;5.92;100.00
66273;BME280;58450;52.150;4.466;2023-04-26T05:04:15;101927.28;;;6.04;100.00
66273;BME280;58450;52.150;4.466;2023-04-26T05:06:43;101935.66;;;6.00;100.00
66273;BME280;58450;52.150;4.466;2023-04-26T05:09:12;101938.25;;;6.01;100.00
66273;BME280;58450;52.150;4.466;2023-04-26T05:11:39;101931.97;;;6.12;100.00
66273;BME280;58450;52.150;4.466;2023-04-26T05:14:07;101929.50;;;6.20;100.00
66273;BME280;58450;52.150;4.466;2023-04-26T05:16:34;101932.94;;;6.32;100.00
66273;BME280;58450;52.150;4.466;2023-04-26T05:19:03;101939.91;;;6.45;100.00
66273;BME280;58450;52.150;4.466;2023-04-26T05:21:30;101939.63;;;6.48;100.00
66273;BME280;58450;52.150;4.466;2023-04-26T05:23:58;101938.28;;;6.54;100.00
66273;BME280;58450;52.150;4.466;2023-04-26T05:26:27;101934.75;;;6.63;100.00
66273;BME280;58450;52.150;4.466;2023-04-26T05:28:54;101933.25;;;6.70;100.00
66273;BME280;58450;52.150;4.466;2023-04-26T05:31:22;101945.09;;;6.77;100.00
66273;BME280;58450;52.150;4.466;2023-04-26T05:33:49;101941.28;;;6.70;100.00
66273;BME280;58450;52.150;4.466;2023-04-26T05:36:17;101932.66;;;6.98;100.00
66273;BME280;58450;52.150;4.466;2023-04-26T05:38:46;101935.34;;;7.07;100.00
66273;BME280;58450;52.150;4.466;2023-04-26T05:41:13;101951.16;;;7.10;100.00
66273;BME280;58450;52.150;4.466;2023-04-26T05:43:42;101952.84;;;7.12;100.00
66273;BME280;58450;52.150;4.466;2023-04-26T05:46:10;101949.72;;;7.16;100.00
66273;BME280;58450;52.150;4.466;2023-04-26T05:48:37;101954.16;;;7.37;100.00
66273;BME280;58450;52.150;4.466;2023-04-26T05:51:05;101952.19;;;7.29;100.00
66273;BME280;58450;52.150;4.466;2023-04-26T05:53:33;101949.66;;;7.57;100.00
66273;BME280;58450;52.150;4.466;2023-04-26T05:56:01;101949.81;;;7.85;100.00
66273;BME280;58450;52.150;4.466;2023-04-26T05:58:28;101955.00;;;8.16;100.00
66273;BME280;58450;52.150;4.466;2023-04-26T06:00:57;101954.38;;;8.42;100.00
66273;BME280;58450;52.150;4.466;2023-04-26T06:03:25;101950.72;;;8.53;100.00
66273;BME280;58450;52.150;4.466;2023-04-26T06:05:53;101956.56;;;8.76;100.00
66273;BME280;58450;52.150;4.466;2023-04-26T06:08:20;101962.22;;;8.73;100.00
66273;BME280;58450;52.150;4.466;2023-04-26T06:10:47;101964.19;;;8.71;100.00
66273;BME280;58450;52.150;4.466;2023-04-26T06:13:15;101973.81;;;8.64;100.00
66273;BME280;58450;52.150;4.466;2023-04-26T06:15:42;101967.34;;;8.56;100.00
66273;BME280;58450;52.150;4.466;2023-04-26T06:18:11;101972.66;;;8.09;100.00
66273;BME280;58450;52.150;4.466;2023-04-26T06:20:39;101977.31;;;8.07;100.00
66273;BME280;58450;52.150;4.466;2023-04-26T06:23:07;101985.06;;;8.10;100.00
66273;BME280;58450;52.150;4.466;2023-04-26T06:25:34;101974.63;;;8.07;100.00
66273;BME280;58450;52.150;4.466;2023-04-26T06:28:02;101987.72;;;8.20;100.00
66273;BME280;58450;52.150;4.466;2023-04-26T06:30:29;101995.19;;;7.47;100.00
66273;BME280;58450;52.150;4.466;2023-04-26T06:32:57;101998.69;;;7.28;100.00
66273;BME280;58450;52.150;4.466;2023-04-26T06:35:27;102003.53;;;7.03;100.00
66273;BME280;58450;52.150;4.466;2023-04-26T06:37:54;102006.75;;;6.97;100.00
66273;BME280;58450;52.150;4.466;2023-04-26T06:40:22;101999.94;;;6.83;100.00
66273;BME280;58450;52.150;4.466;2023-04-26T06:42:49;102004.19;;;6.64;100.00
66273;BME280;58450;52.150;4.466;2023-04-26T06:45:17;101987.69;;;6.59;100.00
66273;BME280;58450;52.150;4.466;2023-04-26T06:47:44;101985.31;;;6.66;100.00
66273;BME280;58450;52.150;4.466;2023-04-26T06:50:13;101984.88;;;6.92;100.00
66273;BME280;58450;52.150;4.466;2023-04-26T06:52:42;101981.09;;;7.35;100.00
66273;BME280;58450;52.150;4.466;2023-04-26T06:55:10;101977.16;;;7.39;100.00
66273;BME280;58450;52.150;4.466;2023-04-26T06:57:37;101977.75;;;7.92;100.00
66273;BME280;58450;52.150;4.466;2023-04-26T07:00:06;101966.16;;;8.02;100.00
66273;BME280;58450;52.150;4.466;2023-04-26T07:02:35;101974.06;;;8.13;100.00
66273;BME280;58450;52.150;4.466;2023-04-26T07:05:03;101979.44;;;7.93;100.00
66273;BME280;58450;52.150;4.466;2023-04-26T07:07:31;101975.75;;;7.94;100.00
66273;BME280;58450;52.150;4.466;2023-04-26T07:10:00;101985.91;;;8.01;100.00
66273;BME280;58450;52.150;4.466;2023-04-26T07:12:27;101975.59;;;8.25;100.00
66273;BME280;58450;52.150;4.466;2023-04-26T07:14:56;101976.25;;;8.47;100.00
66273;BME280;58450;52.150;4.466;2023-04-26T07:17:23;101984.56;;;8.64;100.00
66273;BME280;58450;52.150;4.466;2023-04-26T07:19:51;101989.63;;;8.67;100.00
66273;BME280;58450;52.150;4.466;2023-04-26T07:22:18;101988.69;;;8.96;100.00
66273;BME280;58450;52.150;4.466;2023-04-26T07:24:46;101996.22;;;8.82;100.00
66273;BME280;58450;52.150;4.466;2023-04-26T07:27:15;101990.34;;;8.69;100.00
66273;BME280;58450;52.150;4.466;2023-04-26T07:29:42;101994.47;;;8.53;100.00
66273;BME280;58450;52.150;4.466;2023-04-26T07:32:10;101993.88;;;8.69;100.00
66273;BME280;58450;52.150;4.466;2023-04-26T07:34:38;101988.66;;;8.68;100.00
66273;BME280;58450;52.150;4.466;2023-04-26T07:37:06;101987.94;;;8.66;100.00
66273;BME280;58450;52.150;4.466;2023-04-26T07:39:33;101991.97;;;8.90;100.00
66273;BME280;58450;52.150;4.466;2023-04-26T07:42:01;101991.75;;;9.29;100.00
66273;BME280;58450;52.150;4.466;2023-04-26T07:44:30;101993.66;;;9.65;100.00
66273;BME280;58450;52.150;4.466;2023-04-26T07:46:57;101995.59;;;9.72;100.00
66273;BME280;58450;52.150;4.466;2023-04-26T07:49:25;101992.81;;;9.82;100.00
66273;BME280;58450;52.150;4.466;2023-04-26T07:51:52;102004.13;;;9.68;100.00
66273;BME280;58450;52.150;4.466;2023-04-26T07:54:21;101997.81;;;9.95;100.00
66273;BME280;58450;52.150;4.466;2023-04-26T07:56:48;101995.28;;;9.75;100.00
66273;BME280;58450;52.150;4.466;2023-04-26T07:59:16;101996.41;;;9.73;97.12
66273;BME280;58450;52.150;4.466;2023-04-26T08:01:45;101995.56;;;9.90;96.05
66273;BME280;58450;52.150;4.466;2023-04-26T08:04:12;101994.47;;;10.19;97.18
66273;BME280;58450;52.150;4.466;2023-04-26T08:06:39;102001.75;;;10.27;94.61
66273;BME280;58450;52.150;4.466;2023-04-26T08:09:10;102009.78;;;10.63;96.49
66273;BME280;58450;52.150;4.466;2023-04-26T08:11:37;102004.91;;;10.93;95.48
66273;BME280;58450;52.150;4.466;2023-04-26T08:14:06;102007.50;;;11.12;92.81
66273;BME280;58450;52.150;4.466;2023-04-26T08:16:34;101998.25;;;10.79;85.42
66273;BME280;58450;52.150;4.466;2023-04-26T08:19:02;102001.22;;;10.68;86.06
66273;BME280;58450;52.150;4.466;2023-04-26T08:21:30;102002.56;;;10.19;86.17
66273;BME280;58450;52.150;4.466;2023-04-26T08:23:57;102004.13;;;9.86;84.29
66273;BME280;58450;52.150;4.466;2023-04-26T08:26:25;101999.19;;;9.99;88.18
66273;BME280;58450;52.150;4.466;2023-04-26T08:28:53;102015.00;;;9.66;91.36
66273;BME280;58450;52.150;4.466;2023-04-26T08:31:20;102009.81;;;9.65;94.92
66273;BME280;58450;52.150;4.466;2023-04-26T08:33:48;102010.19;;;8.86;98.57
66273;BME280;58450;52.150;4.466;2023-04-26T08:36:17;102005.09;;;8.93;94.21
66273;BME280;58450;52.150;4.466;2023-04-26T08:38:45;102018.06;;;8.97;94.21
66273;BME280;58450;52.150;4.466;2023-04-26T08:41:12;102008.41;;;9.05;92.12
66273;BME280;58450;52.150;4.466;2023-04-26T08:43:41;102010.16;;;8.96;92.87
66273;BME280;58450;52.150;4.466;2023-04-26T08:46:11;102013.97;;;8.46;94.32
66273;BME280;58450;52.150;4.466;2023-04-26T08:48:50;102007.59;;;8.56;94.51
66273;BME280;58450;52.150;4.466;2023-04-26T08:51:25;102010.44;;;8.35;98.29
66273;BME280;58450;52.150;4.466;2023-04-26T08:53:54;102015.97;;;8.34;93.16
66273;BME280;58450;52.150;4.466;2023-04-26T08:56:24;102008.00;;;8.42;92.22
66273;BME280;58450;52.150;4.466;2023-04-26T08:58:53;102013.19;;;8.83;90.52
66273;BME280;58450;52.150;4.466;2023-04-26T09:01:21;102005.75;;;8.67;89.49
66273;BME280;58450;52.150;4.466;2023-04-26T09:03:51;102017.47;;;8.66;88.18
66273;BME280;58450;52.150;4.466;2023-04-26T09:06:21;102009.03;;;8.51;89.96
66273;BME280;58450;52.150;4.466;2023-04-26T09:08:51;102001.19;;;8.77;87.94
66273;BME280;58450;52.150;4.466;2023-04-26T09:11:21;102006.91;;;9.02;89.75
66273;BME280;58450;52.150;4.466;2023-04-26T09:13:48;102007.34;;;9.25;90.67
66273;BME280;58450;52.150;4.466;2023-04-26T09:16:16;102010.56;;;9.29;93.87
66273;BME280;58450;52.150;4.466;2023-04-26T09:18:48;102017.91;;;9.73;92.47
66273;BME280;58450;52.150;4.466;2023-04-26T09:21:17;102013.47;;;9.64;92.42
66273;BME280;58450;52.150;4.466;2023-04-26T09:24:00;102008.50;;;9.87;91.16
66273;BME280;58450;52.150;4.466;2023-04-26T09:26:29;102009.44;;;10.22;89.07
66273;BME280;58450;52.150;4.466;2023-04-26T09:29:11;102012.09;;;10.58;88.37
66273;BME280;58450;52.150;4.466;2023-04-26T09:31:41;102004.09;;;10.67;84.40
66273;BME280;58450;52.150;4.466;2023-04-26T09:34:10;102006.22;;;10.89;83.15
66273;BME280;58450;52.150;4.466;2023-04-26T09:36:49;102003.97;;;11.87;81.27
66273;BME280;58450;52.150;4.466;2023-04-26T09:39:30;101998.63;;;12.29;74.04
66273;BME280;58450;52.150;4.466;2023-04-26T09:41:59;102010.25;;;12.54;72.46
66273;BME280;58450;52.150;4.466;2023-04-26T09:44:28;101996.28;;;12.90;70.81
66273;BME280;58450;52.150;4.466;2023-04-26T09:47:01;101990.13;;;13.99;70.72
66273;BME280;58450;52.150;4.466;2023-04-26T09:49:31;101994.44;;;15.07;69.21
66273;BME280;58450;52.150;4.466;2023-04-26T09:52:09;101988.19;;;14.08;61.03
66273;BME280;58450;52.150;4.466;2023-04-26T09:54:40;101985.97;;;13.42;59.58
66273;BME280;58450;52.150;4.466;2023-04-26T09:57:10;101989.44;;;13.51;59.88
66273;BME280;58450;52.150;4.466;2023-04-26T09:59:39;101998.22;;;13.53;59.21
66273;BME280;58450;52.150;4.466;2023-04-26T10:02:16;101988.69;;;13.65;60.47
66273;BME280;58450;52.150;4.466;2023-04-26T10:04:47;101995.41;;;12.25;60.42
66273;BME280;58450;52.150;4.466;2023-04-26T10:07:18;102000.81;;;13.06;59.75
66273;BME280;58450;52.150;4.466;2023-04-26T10:09:48;101991.00;;;12.57;58.16
66273;BME280;58450;52.150;4.466;2023-04-26T10:12:17;102000.63;;;11.93;59.33
66273;BME280;58450;52.150;4.466;2023-04-26T10:14:46;102005.28;;;11.66;60.00
66273;BME280;58450;52.150;4.466;2023-04-26T10:17:15;101998.63;;;12.20;60.48
66273;BME280;58450;52.150;4.466;2023-04-26T10:19:46;102000.75;;;11.67;58.07
66273;BME280;58450;52.150;4.466;2023-04-26T10:22:21;102001.56;;;11.59;58.81
66273;BME280;58450;52.150;4.466;2023-04-26T10:24:53;101993.47;;;11.51;58.79
66273;BME280;58450;52.150;4.466;2023-04-26T10:27:46;102005.56;;;11.30;61.76
66273;BME280;58450;52.150;4.466;2023-04-26T10:30:19;101993.16;;;10.42;69.15
66273;BME280;58450;52.150;4.466;2023-04-26T10:33:15;101997.78;;;10.84;67.82
66273;BME280;58450;52.150;4.466;2023-04-26T10:36:06;101993.22;;;10.50;71.63
66273;BME280;58450;52.150;4.466;2023-04-26T10:38:36;101996.06;;;10.30;77.93
66273;BME280;58450;52.150;4.466;2023-04-26T10:41:33;102001.84;;;10.17;82.03
66273;BME280;58450;52.150;4.466;2023-04-26T10:44:39;102005.03;;;9.95;84.33
66273;BME280;58450;52.150;4.466;2023-04-26T10:47:20;102006.88;;;9.76;87.16
66273;BME280;58450;52.150;4.466;2023-04-26T10:49:50;101999.25;;;10.26;83.51
66273;BME280;58450;52.150;4.466;2023-04-26T10:52:18;101991.13;;;11.64;81.91
66273;BME280;58450;52.150;4.466;2023-04-26T10:54:50;101977.66;;;13.04;72.88
66273;BME280;58450;52.150;4.466;2023-04-26T10:57:22;101981.72;;;12.51;69.62
66273;BME280;58450;52.150;4.466;2023-04-26T11:00:29;101990.00;;;12.50;68.86
66273;BME280;58450;52.150;4.466;2023-04-26T11:03:05;101989.03;;;12.91;67.83
66273;BME280;58450;52.150;4.466;2023-04-26T11:05:36;101982.34;;;12.70;67.27
66273;BME280;58450;52.150;4.466;2023-04-26T11:08:23;101982.28;;;12.95;65.41
66273;BME280;58450;52.150;4.466;2023-04-26T11:11:04;101981.22;;;13.44;63.85
66273;BME280;58450;52.150;4.466;2023-04-26T11:13:37;101974.50;;;13.63;62.88
66273;BME280;58450;52.150;4.466;2023-04-26T11:16:07;101975.09;;;13.50;63.01
66273;BME280;58450;52.150;4.466;2023-04-26T11:18:37;101974.13;;;13.03;62.81
66273;BME280;58450;52.150;4.466;2023-04-26T11:21:06;101970.81;;;12.84;63.47
66273;BME280;58450;52.150;4.466;2023-04-26T11:23:34;101970.63;;;12.86;63.94
66273;BME280;58450;52.150;4.466;2023-04-26T11:26:03;101971.84;;;12.83;62.45
66273;BME280;58450;52.150;4.466;2023-04-26T11:28:33;101960.00;;;13.79;61.90
66273;BME280;58450;52.150;4.466;2023-04-26T11:31:05;101962.66;;;13.01;60.88
66273;BME280;58450;52.150;4.466;2023-04-26T11:33:33;101966.16;;;12.62;61.55
66273;BME280;58450;52.150;4.466;2023-04-26T11:36:00;101959.06;;;13.09;59.55
66273;BME280;58450;52.150;4.466;2023-04-26T11:38:28;101965.25;;;13.57;59.47
66273;BME280;58450;52.150;4.466;2023-04-26T11:40:57;101958.16;;;13.80;58.79
66273;BME280;58450;52.150;4.466;2023-04-26T11:43:33;101963.16;;;13.28;58.40
66273;BME280;58450;52.150;4.466;2023-04-26T11:46:03;101958.97;;;13.57;57.26
66273;BME280;58450;52.150;4.466;2023-04-26T11:48:33;101965.38;;;13.33;57.61
66273;BME280;58450;52.150;4.466;2023-04-26T11:51:03;101965.78;;;13.13;57.44
66273;BME280;58450;52.150;4.466;2023-04-26T11:53:35;101972.13;;;12.97;58.42
66273;BME280;58450;52.150;4.466;2023-04-26T11:56:04;101975.09;;;13.50;58.56
66273;BME280;58450;52.150;4.466;2023-04-26T11:58:43;101964.84;;;13.69;58.44
66273;BME280;58450;52.150;4.466;2023-04-26T12:01:20;101970.97;;;14.01;59.04
66273;BME280;58450;52.150;4.466;2023-04-26T12:03:49;101969.16;;;14.16;56.56
66273;BME280;58450;52.150;4.466;2023-04-26T12:06:18;101970.72;;;14.94;54.43
66273;BME280;58450;52.150;4.466;2023-04-26T12:08:49;101965.03;;;15.84;52.19
66273;BME280;58450;52.150;4.466;2023-04-26T12:11:17;101973.88;;;15.13;50.67
66273;BME280;58450;52.150;4.466;2023-04-26T12:13:45;101968.00;;;14.64;51.24
66273;BME280;58450;52.150;4.466;2023-04-26T12:16:13;101965.75;;;14.38;51.68
66273;BME280;58450;52.150;4.466;2023-04-26T12:18:48;101973.47;;;14.26;52.11
66273;BME280;58450;52.150;4.466;2023-04-26T12:21:17;101979.16;;;15.36;51.11
66273;BME280;58450;52.150;4.466;2023-04-26T12:23:45;101975.53;;;15.29;50.59
66273;BME280;58450;52.150;4.466;2023-04-26T12:26:14;101975.59;;;14.15;50.80
66273;BME280;58450;52.150;4.466;2023-04-26T12:28:41;101975.78;;;14.97;50.69
66273;BME280;58450;52.150;4.466;2023-04-26T12:31:09;101972.09;;;15.57;49.61
66273;BME280;58450;52.150;4.466;2023-04-26T12:33:37;101968.41;;;16.08;48.85
66273;BME280;58450;52.150;4.466;2023-04-26T12:36:07;101967.00;;;16.82;47.91
66273;BME280;58450;52.150;4.466;2023-04-26T12:38:35;101975.28;;;14.48;49.38
66273;BME280;58450;52.150;4.466;2023-04-26T12:41:03;101974.28;;;16.12;49.46
66273;BME280;58450;52.150;4.466;2023-04-26T12:43:31;101981.47;;;16.19;47.34
66273;BME280;58450;52.150;4.466;2023-04-26T12:45:59;101972.31;;;17.53;44.89
66273;BME280;58450;52.150;4.466;2023-04-26T12:48:26;101970.28;;;18.22;43.74
66273;BME280;58450;52.150;4.466;2023-04-26T12:50:54;101974.38;;;17.44;44.50
66273;BME280;58450;52.150;4.466;2023-04-26T12:53:23;101967.09;;;17.51;43.96
66273;BME280;58450;52.150;4.466;2023-04-26T12:55:50;101975.72;;;17.82;43.90
66273;BME280;58450;52.150;4.466;2023-04-26T12:58:18;101969.56;;;19.33;42.97
66273;BME280;58450;52.150;4.466;2023-04-26T13:00:47;101975.03;;;18.67;40.78